sensor_id;sensor_type;location;lat;lon;timestamp;pressure;altitude;pressure_sealevel;temperature;humidity
32735;BME280;19112;51.076;3.706;2023-05-20T00:00:40;102281.22;;;15.24;69.68
32735;BME280;19112;51.076;3.706;2023-05-20T00:03:06;101977.25;;;13.60;69.26
32735;BME280;19112;51.076;3.706;2023-05-20T00:05:32;102271.31;;;15.18;69.87
32735;BME280;19112;51.076;3.706;2023-05-20T00:07:58;102264.59;;;15.28;69.32
32735;BME280;19112;51.076;3.706;2023-05-20T00:10:25;102183.56;;;14.82;69.34
32735;BME280;19112;51.076;3.706;2023-05-20T00:12:50;101981.69;;;13.61;69.41
32735;BME280;19112;51.076;3.706;2023-05-20T00:15:16;102040.09;;;13.93;69.55
32735;BME280;19112;51.076;3.706;2023-05-20T00:17:42;102179.75;;;14.75;69.62
32735;BME280;19112;51.076;3.706;2023-05-20T00:20:08;101927.41;;;13.23;69.39
32735;BME280;19112;51.076;3.706;2023-05-20T00:22:34;102010.78;;;13.85;69.25
32735;BME280;19112;51.076;3.706;2023-05-20T00:25:00;102134.69;;;14.48;69.62
32735;BME280;19112;51.076;3.706;2023-05-20T00:27:26;102264.41;;;15.23;69.54
32735;BME280;19112;51.076;3.706;2023-05-20T00:29:52;101849.09;;;12.77;69.91
32735;BME280;19112;51.076;3.706;2023-05-20T00:32:18;102111.78;;;14.26;70.07
32735;BME280;19112;51.076;3.706;2023-05-20T00:34:43;102070.47;;;14.04;69.95
32735;BME280;19112;51.076;3.706;2023-05-20T00:37:10;102258.84;;;15.15;69.89
32735;BME280;19112;51.076;3.706;2023-05-20T00:39:35;102200.69;;;14.69;69.69
32735;BME280;19112;51.076;3.706;2023-05-20T00:42:01;102056.16;;;13.99;69.54
32735;BME280;19112;51.076;3.706;2023-05-20T00:44:28;102228.78;;;14.89;69.89
32735;BME280;19112;51.076;3.706;2023-05-20T00:46:54;102266.75;;;15.14;69.58
32735;BME280;19112;51.076;3.706;2023-05-20T00:49:20;102166.81;;;14.59;68.87
32735;BME280;19112;51.076;3.706;2023-05-20T00:51:48;102253.56;;;15.15;68.51
32735;BME280;19112;51.076;3.706;2023-05-20T00:54:14;102199.75;;;14.91;68.20
32735;BME280;19112;51.076;3.706;2023-05-20T00:56:41;102064.81;;;14.18;68.03
32735;BME280;19112;51.076;3.706;2023-05-20T00:59:07;102104.50;;;14.43;67.46
32735;BME280;19112;51.076;3.706;2023-05-20T01:01:33;102080.06;;;14.25;67.29
32735;BME280;19112;51.076;3.706;2023-05-20T01:04:00;102272.72;;;15.08;66.79
32735;BME280;19112;51.076;3.706;2023-05-20T01:06:26;102082.81;;;14.28;66.66
32735;BME280;19112;51.076;3.706;2023-05-20T01:08:53;102212.19;;;14.93;66.40
32735;BME280;19112;51.076;3.706;2023-05-20T01:11:33;102129.81;;;14.59;66.19
32735;BME280;19112;51.076;3.706;2023-05-20T01:14:04;102242.31;;;15.21;66.31
32735;BME280;19112;51.076;3.706;2023-05-20T01:16:32;102219.41;;;14.98;66.33
32735;BME280;19112;51.076;3.706;2023-05-20T01:18:59;102159.13;;;14.65;65.95
32735;BME280;19112;51.076;3.706;2023-05-20T01:21:29;102108.66;;;14.36;65.72
32735;BME280;19112;51.076;3.706;2023-05-20T01:23:56;102166.53;;;14.75;65.25
32735;BME280;19112;51.076;3.706;2023-05-20T01:26:22;102206.28;;;15.01;65.20
32735;BME280;19112;51.076;3.706;2023-05-20T01:28:51;102145.06;;;14.66;64.80
32735;BME280;19112;51.076;3.706;2023-05-20T01:31:23;102129.00;;;14.60;64.23
32735;BME280;19112;51.076;3.706;2023-05-20T01:33:55;102236.06;;;15.19;63.88
32735;BME280;19112;51.076;3.706;2023-05-20T01:36:23;102231.19;;;15.07;63.66
32735;BME280;19112;51.076;3.706;2023-05-20T01:38:52;102049.09;;;13.98;63.45
32735;BME280;19112;51.076;3.706;2023-05-20T01:41:19;102179.94;;;14.80;63.69
32735;BME280;19112;51.076;3.706;2023-05-20T01:43:46;102230.38;;;15.08;63.25
32735;BME280;19112;51.076;3.706;2023-05-20T01:46:13;102234.81;;;15.09;63.10
32735;BME280;19112;51.076;3.706;2023-05-20T01:48:39;102170.25;;;14.80;63.18
32735;BME280;19112;51.076;3.706;2023-05-20T01:51:05;102152.91;;;14.64;63.11
32735;BME280;19112;51.076;3.706;2023-05-20T01:53:31;102210.84;;;15.05;62.98
32735;BME280;19112;51.076;3.706;2023-05-20T01:55:57;102176.34;;;14.78;62.88
32735;BME280;19112;51.076;3.706;2023-05-20T01:58:23;102218.94;;;15.09;62.77
32735;BME280;19112;51.076;3.706;2023-05-20T02:00:49;102095.63;;;14.41;62.73
32735;BME280;19112;51.076;3.706;2023-05-20T02:03:14;102160.13;;;14.68;62.55
32735;BME280;19112;51.076;3.706;2023-05-20T02:05:40;102224.03;;;15.03;62.81
32735;BME280;19112;51.076;3.706;2023-05-20T02:08:06;102153.00;;;14.66;62.78
32735;BME280;19112;51.076;3.706;2023-05-20T02:10:32;101960.47;;;13.58;62.73
32735;BME280;19112;51.076;3.706;2023-05-20T02:12:58;102228.97;;;14.94;62.55
32735;BME280;19112;51.076;3.706;2023-05-20T02:15:24;102131.78;;;14.42;62.51
32735;BME280;19112;51.076;3.706;2023-05-20T02:17:50;102099.97;;;14.16;62.59
32735;BME280;19112;51.076;3.706;2023-05-20T02:20:15;102157.03;;;14.56;62.10
32735;BME280;19112;51.076;3.706;2023-05-20T02:22:41;102210.41;;;14.92;62.23
32735;BME280;19112;51.076;3.706;2023-05-20T02:25:08;102138.84;;;14.43;62.33
32735;BME280;19112;51.076;3.706;2023-05-20T02:27:34;102139.38;;;14.55;62.10
32735;BME280;19112;51.076;3.706;2023-05-20T02:30:00;102211.38;;;14.96;62.08
32735;BME280;19112;51.076;3.706;2023-05-20T02:32:26;102098.81;;;14.32;61.63
32735;BME280;19112;51.076;3.706;2023-05-20T02:34:54;102211.28;;;14.93;61.67
32735;BME280;19112;51.076;3.706;2023-05-20T02:37:20;102069.97;;;14.14;61.56
32735;BME280;19112;51.076;3.706;2023-05-20T02:39:46;102127.38;;;14.42;61.60
32735;BME280;19112;51.076;3.706;2023-05-20T02:42:12;102123.84;;;14.42;61.64
32735;BME280;19112;51.076;3.706;2023-05-20T02:44:38;102162.31;;;14.56;61.66
32735;BME280;19112;51.076;3.706;2023-05-20T02:47:04;102189.88;;;14.63;61.67
32735;BME280;19112;51.076;3.706;2023-05-20T02:49:29;102216.34;;;14.87;61.67
32735;BME280;19112;51.076;3.706;2023-05-20T02:51:55;102023.19;;;13.66;61.77
32735;BME280;19112;51.076;3.706;2023-05-20T02:54:21;102017.19;;;13.70;61.52
32735;BME280;19112;51.076;3.706;2023-05-20T02:56:47;102203.63;;;14.77;61.86
32735;BME280;19112;51.076;3.706;2023-05-20T02:59:13;102161.88;;;14.46;61.64
32735;BME280;19112;51.076;3.706;2023-05-20T03:01:39;102208.78;;;14.74;61.88
32735;BME280;19112;51.076;3.706;2023-05-20T03:04:05;102229.94;;;14.74;61.51
32735;BME280;19112;51.076;3.706;2023-05-20T03:06:31;102043.03;;;13.78;61.44
32735;BME280;19112;51.076;3.706;2023-05-20T03:08:57;102031.22;;;13.69;61.82
32735;BME280;19112;51.076;3.706;2023-05-20T03:11:24;102211.69;;;14.57;62.05
32735;BME280;19112;51.076;3.706;2023-05-20T03:13:50;102173.44;;;14.48;61.81
32735;BME280;19112;51.076;3.706;2023-05-20T03:16:16;102161.69;;;14.41;61.81
32735;BME280;19112;51.076;3.706;2023-05-20T03:18:43;101906.38;;;13.04;61.71
32735;BME280;19112;51.076;3.706;2023-05-20T03:21:09;102156.28;;;14.38;62.00
32735;BME280;19112;51.076;3.706;2023-05-20T03:23:35;102125.56;;;14.18;61.88
32735;BME280;19112;51.076;3.706;2023-05-20T03:26:01;102109.41;;;14.10;61.89
32735;BME280;19112;51.076;3.706;2023-05-20T03:28:27;102139.00;;;14.24;62.04
32735;BME280;19112;51.076;3.706;2023-05-20T03:30:53;102138.59;;;14.13;62.02
32735;BME280;19112;51.076;3.706;2023-05-20T03:33:19;102198.03;;;14.47;62.13
32735;BME280;19112;51.076;3.706;2023-05-20T03:35:45;102180.06;;;14.38;62.15
32735;BME280;19112;51.076;3.706;2023-05-20T03:38:11;102115.34;;;14.04;62.06
32735;BME280;19112;51.076;3.706;2023-05-20T03:40:37;102197.53;;;14.55;62.15
32735;BME280;19112;51.076;3.706;2023-05-20T03:43:03;101882.41;;;12.75;62.24
32735;BME280;19112;51.076;3.706;2023-05-20T03:45:29;102201.72;;;14.50;62.36
32735;BME280;19112;51.076;3.706;2023-05-20T03:47:55;102204.16;;;14.46;62.62
32735;BME280;19112;51.076;3.706;2023-05-20T03:50:21;102118.13;;;14.07;62.32
32735;BME280;19112;51.076;3.706;2023-05-20T03:52:46;102090.75;;;13.83;62.26
32735;BME280;19112;51.076;3.706;2023-05-20T03:55:12;102196.31;;;14.47;62.61
32735;BME280;19112;51.076;3.706;2023-05-20T03:57:38;102204.38;;;14.50;62.12
32735;BME280;19112;51.076;3.706;2023-05-20T04:00:05;102116.25;;;14.05;62.09
32735;BME280;19112;51.076;3.706;2023-05-20T04:02:36;102102.72;;;13.96;62.13
32735;BME280;19112;51.076;3.706;2023-05-20T04:05:03;102119.53;;;13.99;62.18
32735;BME280;19112;51.076;3.706;2023-05-20T04:07:29;102200.09;;;14.54;62.14
32735;BME280;19112;51.076;3.706;2023-05-20T04:09:55;101841.16;;;12.34;62.27
32735;BME280;19112;51.076;3.706;2023-05-20T04:12:21;102077.09;;;13.72;62.14
32735;BME280;19112;51.076;3.706;2023-05-20T04:14:47;102199.94;;;14.49;62.15
32735;BME280;19112;51.076;3.706;2023-05-20T04:17:14;102195.06;;;14.60;62.24
32735;BME280;19112;51.076;3.706;2023-05-20T04:19:40;102200.34;;;14.60;61.98
32735;BME280;19112;51.076;3.706;2023-05-20T04:22:07;102072.81;;;13.97;61.85
32735;BME280;19112;51.076;3.706;2023-05-20T04:24:33;102199.88;;;14.70;61.90
32735;BME280;19112;51.076;3.706;2023-05-20T04:26:58;102200.72;;;14.93;61.44
32735;BME280;19112;51.076;3.706;2023-05-20T04:29:24;102163.56;;;14.66;61.35
32735;BME280;19112;51.076;3.706;2023-05-20T04:31:50;102081.75;;;14.23;61.63
32735;BME280;19112;51.076;3.706;2023-05-20T04:34:16;102102.97;;;14.26;62.10
32735;BME280;19112;51.076;3.706;2023-05-20T04:36:44;102212.47;;;14.77;62.41
32735;BME280;19112;51.076;3.706;2023-05-20T04:39:10;102200.50;;;14.64;62.58
32735;BME280;19112;51.076;3.706;2023-05-20T04:41:37;101469.00;;;10.57;62.52
32735;BME280;19112;51.076;3.706;2023-05-20T04:44:03;102173.91;;;14.60;62.44
32735;BME280;19112;51.076;3.706;2023-05-20T04:46:29;102210.19;;;14.86;62.43
32735;BME280;19112;51.076;3.706;2023-05-20T04:48:56;102175.41;;;14.76;62.14
32735;BME280;19112;51.076;3.706;2023-05-20T04:51:22;102208.25;;;15.06;62.05
32735;BME280;19112;51.076;3.706;2023-05-20T04:53:48;102147.72;;;14.66;61.86
32735;BME280;19112;51.076;3.706;2023-05-20T04:56:15;102163.78;;;14.72;61.76
32735;BME280;19112;51.076;3.706;2023-05-20T04:58:41;102140.31;;;14.57;61.65
32735;BME280;19112;51.076;3.706;2023-05-20T05:01:07;102206.38;;;14.80;61.75
32735;BME280;19112;51.076;3.706;2023-05-20T05:03:33;102055.50;;;14.05;61.87
32735;BME280;19112;51.076;3.706;2023-05-20T05:05:59;102197.00;;;14.88;61.38
32735;BME280;19112;51.076;3.706;2023-05-20T05:08:25;102190.13;;;14.93;61.14
32735;BME280;19112;51.076;3.706;2023-05-20T05:10:51;102175.41;;;14.76;61.55
32735;BME280;19112;51.076;3.706;2023-05-20T05:13:18;101961.19;;;13.54;61.81
32735;BME280;19112;51.076;3.706;2023-05-20T05:15:44;102067.75;;;14.03;61.59
32735;BME280;19112;51.076;3.706;2023-05-20T05:18:10;102200.66;;;14.91;61.57
32735;BME280;19112;51.076;3.706;2023-05-20T05:20:35;102187.19;;;14.85;61.63
32735;BME280;19112;51.076;3.706;2023-05-20T05:23:01;102188.63;;;14.76;61.88
32735;BME280;19112;51.076;3.706;2023-05-20T05:25:27;102193.16;;;14.80;61.99
32735;BME280;19112;51.076;3.706;2023-05-20T05:27:53;102157.38;;;14.65;61.91
32735;BME280;19112;51.076;3.706;2023-05-20T05:30:20;102038.81;;;14.06;61.83
32735;BME280;19112;51.076;3.706;2023-05-20T05:32:46;101881.53;;;13.20;61.74
32735;BME280;19112;51.076;3.706;2023-05-20T05:35:12;102198.03;;;14.91;61.95
32735;BME280;19112;51.076;3.706;2023-05-20T05:37:38;101148.41;;;9.02;61.24
32735;BME280;19112;51.076;3.706;2023-05-20T05:40:06;102197.56;;;15.03;61.58
32735;BME280;19112;51.076;3.706;2023-05-20T05:42:32;102200.66;;;15.15;61.40
32735;BME280;19112;51.076;3.706;2023-05-20T05:44:58;102198.44;;;15.28;60.78
32735;BME280;19112;51.076;3.706;2023-05-20T05:47:24;101888.59;;;13.66;60.97
32735;BME280;19112;51.076;3.706;2023-05-20T05:49:54;102232.13;;;15.57;60.32
32735;BME280;19112;51.076;3.706;2023-05-20T05:52:20;102193.31;;;15.58;60.09
32735;BME280;19112;51.076;3.706;2023-05-20T05:54:46;101882.91;;;13.79;59.47
32735;BME280;19112;51.076;3.706;2023-05-20T05:57:12;102191.53;;;15.57;59.64
32735;BME280;19112;51.076;3.706;2023-05-20T05:59:38;101901.53;;;13.82;59.89
32735;BME280;19112;51.076;3.706;2023-05-20T06:02:04;102149.06;;;15.28;59.76
32735;BME280;19112;51.076;3.706;2023-05-20T06:04:30;102206.31;;;15.50;60.04
32735;BME280;19112;51.076;3.706;2023-05-20T06:06:56;102197.69;;;15.56;59.95
32735;BME280;19112;51.076;3.706;2023-05-20T06:09:22;102033.25;;;14.68;60.24
32735;BME280;19112;51.076;3.706;2023-05-20T06:11:48;102190.47;;;15.52;60.07
32735;BME280;19112;51.076;3.706;2023-05-20T06:14:13;102018.41;;;14.48;59.82
32735;BME280;19112;51.076;3.706;2023-05-20T06:16:39;102161.59;;;15.34;60.21
32735;BME280;19112;51.076;3.706;2023-05-20T06:19:05;102152.38;;;15.23;60.01
32735;BME280;19112;51.076;3.706;2023-05-20T06:21:33;102182.47;;;15.76;60.14
32735;BME280;19112;51.076;3.706;2023-05-20T06:23:59;102144.25;;;15.42;59.56
32735;BME280;19112;51.076;3.706;2023-05-20T06:26:25;101985.66;;;14.68;59.55
32735;BME280;19112;51.076;3.706;2023-05-20T06:28:51;102165.78;;;15.77;59.53
32735;BME280;19112;51.076;3.706;2023-05-20T06:31:17;102066.13;;;15.28;59.62
32735;BME280;19112;51.076;3.706;2023-05-20T06:33:44;102109.09;;;15.46;59.27
32735;BME280;19112;51.076;3.706;2023-05-20T06:36:10;102174.59;;;16.04;59.27
32735;BME280;19112;51.076;3.706;2023-05-20T06:38:36;102150.81;;;15.79;59.10
32735;BME280;19112;51.076;3.706;2023-05-20T06:41:03;102101.16;;;15.71;58.85
32735;BME280;19112;51.076;3.706;2023-05-20T06:43:29;101905.16;;;14.59;58.86
32735;BME280;19112;51.076;3.706;2023-05-20T06:45:55;102100.34;;;15.74;59.08
32735;BME280;19112;51.076;3.706;2023-05-20T06:48:21;102166.75;;;16.07;58.64
32735;BME280;19112;51.076;3.706;2023-05-20T06:50:47;102032.59;;;15.54;58.36
32735;BME280;19112;51.076;3.706;2023-05-20T06:53:13;102158.56;;;16.28;58.58
32735;BME280;19112;51.076;3.706;2023-05-20T06:55:39;102159.38;;;16.26;57.93
32735;BME280;19112;51.076;3.706;2023-05-20T06:58:04;102116.69;;;16.16;57.74
32735;BME280;19112;51.076;3.706;2023-05-20T07:00:30;102156.72;;;16.54;57.45
32735;BME280;19112;51.076;3.706;2023-05-20T07:02:56;102121.72;;;16.36;57.28
32735;BME280;19112;51.076;3.706;2023-05-20T07:05:22;102161.97;;;16.53;57.99
32735;BME280;19112;51.076;3.706;2023-05-20T07:07:49;102156.00;;;16.60;58.71
32735;BME280;19112;51.076;3.706;2023-05-20T07:10:15;101887.97;;;14.99;58.15
32735;BME280;19112;51.076;3.706;2023-05-20T07:12:41;102154.03;;;16.53;57.83
32735;BME280;19112;51.076;3.706;2023-05-20T07:15:08;102079.91;;;16.27;58.02
32735;BME280;19112;51.076;3.706;2023-05-20T07:17:34;102085.88;;;16.50;57.55
32735;BME280;19112;51.076;3.706;2023-05-20T07:20:00;102144.88;;;17.03;57.62
32735;BME280;19112;51.076;3.706;2023-05-20T07:22:25;102139.50;;;17.00;56.17
32735;BME280;19112;51.076;3.706;2023-05-20T07:24:51;102112.25;;;16.74;56.73
32735;BME280;19112;51.076;3.706;2023-05-20T07:27:17;101838.44;;;15.23;56.41
32735;BME280;19112;51.076;3.706;2023-05-20T07:29:43;102143.81;;;16.96;57.02
32735;BME280;19112;51.076;3.706;2023-05-20T07:32:09;102146.06;;;17.14;56.67
32735;BME280;19112;51.076;3.706;2023-05-20T07:34:35;102116.44;;;16.97;56.55
32735;BME280;19112;51.076;3.706;2023-05-20T07:37:01;102130.06;;;17.11;56.71
32735;BME280;19112;51.076;3.706;2023-05-20T07:39:27;102131.41;;;17.28;57.12
32735;BME280;19112;51.076;3.706;2023-05-20T07:41:53;102143.09;;;17.35;56.87
32735;BME280;19112;51.076;3.706;2023-05-20T07:44:18;102096.00;;;17.28;55.87
32735;BME280;19112;51.076;3.706;2023-05-20T07:46:46;102134.47;;;17.44;56.60
32735;BME280;19112;51.076;3.706;2023-05-20T07:49:12;102143.00;;;17.67;57.09
32735;BME280;19112;51.076;3.706;2023-05-20T07:51:38;102060.78;;;17.35;56.82
32735;BME280;19112;51.076;3.706;2023-05-20T07:54:04;102074.31;;;17.46;55.75
32735;BME280;19112;51.076;3.706;2023-05-20T07:56:30;101983.38;;;17.17;55.27
32735;BME280;19112;51.076;3.706;2023-05-20T07:58:58;101861.94;;;16.70;56.19
32735;BME280;19112;51.076;3.706;2023-05-20T08:01:25;102128.75;;;18.37;55.86
32735;BME280;19112;51.076;3.706;2023-05-20T08:03:51;102084.84;;;18.15;54.90
32735;BME280;19112;51.076;3.706;2023-05-20T08:06:17;102128.84;;;18.42;53.57
32735;BME280;19112;51.076;3.706;2023-05-20T08:08:46;102146.53;;;18.40;54.51
32735;BME280;19112;51.076;3.706;2023-05-20T08:11:12;102090.03;;;18.09;54.01
32735;BME280;19112;51.076;3.706;2023-05-20T08:13:38;101914.75;;;16.96;52.94
32735;BME280;19112;51.076;3.706;2023-05-20T08:16:05;102016.97;;;17.52;53.54
32735;BME280;19112;51.076;3.706;2023-05-20T08:18:34;101980.34;;;17.38;53.51
32735;BME280;19112;51.076;3.706;2023-05-20T08:21:07;102069.38;;;17.97;53.84
32735;BME280;19112;51.076;3.706;2023-05-20T08:23:33;102118.94;;;18.35;53.88
32735;BME280;19112;51.076;3.706;2023-05-20T08:25:59;102085.56;;;18.08;53.99
32735;BME280;19112;51.076;3.706;2023-05-20T08:28:30;102042.56;;;17.87;53.14
32735;BME280;19112;51.076;3.706;2023-05-20T08:30:56;102052.72;;;18.04;53.95
32735;BME280;19112;51.076;3.706;2023-05-20T08:33:25;101877.88;;;17.08;53.36
32735;BME280;19112;51.076;3.706;2023-05-20T08:35:51;102071.88;;;18.30;52.92
32735;BME280;19112;51.076;3.706;2023-05-20T08:38:17;102117.50;;;18.49;52.29
32735;BME280;19112;51.076;3.706;2023-05-20T08:40:43;102114.16;;;18.59;52.73
32735;BME280;19112;51.076;3.706;2023-05-20T08:43:08;102111.19;;;18.45;51.45
32735;BME280;19112;51.076;3.706;2023-05-20T08:45:37;102057.50;;;18.21;52.48
32735;BME280;19112;51.076;3.706;2023-05-20T08:48:03;102016.66;;;18.17;51.17
32735;BME280;19112;51.076;3.706;2023-05-20T08:50:30;102112.66;;;18.70;50.76
32735;BME280;19112;51.076;3.706;2023-05-20T08:52:56;102100.38;;;18.78;52.18
32735;BME280;19112;51.076;3.706;2023-05-20T08:56:00;102104.81;;;18.78;51.17
32735;BME280;19112;51.076;3.706;2023-05-20T08:58:30;102103.03;;;18.78;50.96
32735;BME280;19112;51.076;3.706;2023-05-20T09:00:57;102045.31;;;18.32;50.90
32735;BME280;19112;51.076;3.706;2023-05-20T09:03:25;102028.78;;;18.47;51.42
32735;BME280;19112;51.076;3.706;2023-05-20T09:05:52;102093.78;;;19.05;51.43
32735;BME280;19112;51.076;3.706;2023-05-20T09:08:23;102093.53;;;18.91;51.48
32735;BME280;19112;51.076;3.706;2023-05-20T09:10:51;101941.16;;;18.08;49.96
32735;BME280;19112;51.076;3.706;2023-05-20T09:13:18;101897.66;;;18.04;50.44
32735;BME280;19112;51.076;3.706;2023-05-20T09:15:43;102090.50;;;19.18;51.07
32735;BME280;19112;51.076;3.706;2023-05-20T09:18:09;101919.25;;;18.21;49.07
32735;BME280;19112;51.076;3.706;2023-05-20T09:20:37;102050.19;;;18.98;48.29
32735;BME280;19112;51.076;3.706;2023-05-20T09:23:05;102072.31;;;19.47;48.53
32735;BME280;19112;51.076;3.706;2023-05-20T09:25:32;102078.38;;;19.37;48.19
32735;BME280;19112;51.076;3.706;2023-05-20T09:27:58;101973.22;;;18.64;48.65
32735;BME280;19112;51.076;3.706;2023-05-20T09:30:24;101903.38;;;18.24;47.46
32735;BME280;19112;51.076;3.706;2023-05-20T09:32:58;102051.19;;;19.05;48.15
32735;BME280;19112;51.076;3.706;2023-05-20T09:35:26;102066.72;;;19.30;49.72
32735;BME280;19112;51.076;3.706;2023-05-20T09:37:54;102026.31;;;19.03;49.80
32735;BME280;19112;51.076;3.706;2023-05-20T09:40:24;102083.59;;;19.29;49.81
32735;BME280;19112;51.076;3.706;2023-05-20T09:43:02;101788.31;;;17.83;49.14
32735;BME280;19112;51.076;3.706;2023-05-20T09:45:28;101910.31;;;18.66;49.81
32735;BME280;19112;51.076;3.706;2023-05-20T09:47:55;101981.25;;;19.15;48.66
32735;BME280;19112;51.076;3.706;2023-05-20T09:50:23;102057.66;;;19.72;48.03
32735;BME280;19112;51.076;3.706;2023-05-20T09:52:52;102023.31;;;19.37;47.37
32735;BME280;19112;51.076;3.706;2023-05-20T09:55:23;102049.59;;;19.66;47.26
32735;BME280;19112;51.076;3.706;2023-05-20T09:57:49;102040.56;;;19.59;47.44
32735;BME280;19112;51.076;3.706;2023-05-20T10:00:15;101892.78;;;18.75;47.20
32735;BME280;19112;51.076;3.706;2023-05-20T10:02:51;101946.56;;;19.10;46.67
32735;BME280;19112;51.076;3.706;2023-05-20T10:05:29;102022.97;;;19.69;46.97
32735;BME280;19112;51.076;3.706;2023-05-20T10:11:18;102007.06;;;19.75;46.58
32735;BME280;19112;51.076;3.706;2023-05-20T10:14:12;101920.72;;;19.61;46.63
32735;BME280;19112;51.076;3.706;2023-05-20T10:19:40;101788.59;;;19.07;45.28
32735;BME280;19112;51.076;3.706;2023-05-20T10:22:09;101962.25;;;20.13;44.34
32735;BME280;19112;51.076;3.706;2023-05-20T10:24:38;102022.59;;;20.07;44.06
32735;BME280;19112;51.076;3.706;2023-05-20T10:27:10;102026.28;;;20.18;44.50
32735;BME280;19112;51.076;3.706;2023-05-20T10:29:57;101713.03;;;18.37;45.08
32735;BME280;19112;51.076;3.706;2023-05-20T10:32:30;101767.97;;;18.94;44.84
32735;BME280;19112;51.076;3.706;2023-05-20T10:35:07;102014.25;;;20.49;43.68
32735;BME280;19112;51.076;3.706;2023-05-20T10:37:42;101924.50;;;19.80;43.18
32735;BME280;19112;51.076;3.706;2023-05-20T10:40:14;101819.91;;;19.28;43.26
32735;BME280;19112;51.076;3.706;2023-05-20T10:42:41;101925.94;;;20.29;42.77
32735;BME280;19112;51.076;3.706;2023-05-20T10:45:08;101822.56;;;20.02;43.83
32735;BME280;19112;51.076;3.706;2023-05-20T10:47:35;101963.00;;;20.85;42.38
32735;BME280;19112;51.076;3.706;2023-05-20T10:50:01;102005.81;;;20.96;41.52
32735;BME280;19112;51.076;3.706;2023-05-20T10:52:35;101879.75;;;20.32;41.60
32735;BME280;19112;51.076;3.706;2023-05-20T10:55:03;101877.19;;;20.41;42.16
32735;BME280;19112;51.076;3.706;2023-05-20T10:57:29;101827.41;;;20.45;42.19
32735;BME280;19112;51.076;3.706;2023-05-20T10:59:57;101843.56;;;20.58;40.99
32735;BME280;19112;51.076;3.706;2023-05-20T11:02:24;101876.59;;;20.73;41.00
32735;BME280;19112;51.076;3.706;2023-05-20T11:04:58;101896.25;;;20.84;40.80
32735;BME280;19112;51.076;3.706;2023-05-20T11:07:28;101723.13;;;20.09;41.34
32735;BME280;19112;51.076;3.706;2023-05-20T11:09:55;101916.16;;;21.29;40.85
32735;BME280;19112;51.076;3.706;2023-05-20T11:12:22;101980.63;;;21.84;40.63
32735;BME280;19112;51.076;3.706;2023-05-20T11:14:49;101901.06;;;21.32;39.92
32735;BME280;19112;51.076;3.706;2023-05-20T11:17:17;101910.03;;;21.45;39.63
32735;BME280;19112;51.076;3.706;2023-05-20T11:19:44;101902.16;;;21.68;39.47
32735;BME280;19112;51.076;3.706;2023-05-20T11:22:10;101810.03;;;21.03;39.25
32735;BME280;19112;51.076;3.706;2023-05-20T11:24:36;101931.59;;;21.83;39.12
32735;BME280;19112;51.076;3.706;2023-05-20T11:27:02;101902.25;;;21.95;38.70
32735;BME280;19112;51.076;3.706;2023-05-20T11:29:29;101962.16;;;22.39;38.56
32735;BME280;19112;51.076;3.706;2023-05-20T11:31:58;101971.81;;;22.08;38.73
32735;BME280;19112;51.076;3.706;2023-05-20T11:34:23;101770.78;;;20.85;37.90
32735;BME280;19112;51.076;3.706;2023-05-20T11:36:56;101952.19;;;22.03;40.42
32735;BME280;19112;51.076;3.706;2023-05-20T11:39:23;101950.25;;;21.65;39.85
32735;BME280;19112;51.076;3.706;2023-05-20T11:41:49;101724.09;;;20.22;39.46
32735;BME280;19112;51.076;3.706;2023-05-20T11:44:15;101915.34;;;21.37;39.74
32735;BME280;19112;51.076;3.706;2023-05-20T11:46:47;101888.69;;;21.50;38.55
32735;BME280;19112;51.076;3.706;2023-05-20T11:49:14;101928.84;;;21.65;37.94
32735;BME280;19112;51.076;3.706;2023-05-20T11:51:40;101952.09;;;21.83;38.85
32735;BME280;19112;51.076;3.706;2023-05-20T11:54:07;101951.97;;;21.57;38.01
32735;BME280;19112;51.076;3.706;2023-05-20T11:56:37;101861.75;;;21.17;38.29
32735;BME280;19112;51.076;3.706;2023-05-20T11:59:05;101823.38;;;20.96;37.91
32735;BME280;19112;51.076;3.706;2023-05-20T12:01:37;101725.91;;;20.29;38.35
32735;BME280;19112;51.076;3.706;2023-05-20T12:04:06;101940.53;;;21.79;37.97
32735;BME280;19112;51.076;3.706;2023-05-20T12:06:32;101901.00;;;21.28;37.48
32735;BME280;19112;51.076;3.706;2023-05-20T12:09:03;101772.47;;;20.70;38.06
32735;BME280;19112;51.076;3.706;2023-05-20T12:11:36;101927.06;;;21.61;38.00
32735;BME280;19112;51.076;3.706;2023-05-20T12:14:03;101882.47;;;21.54;37.80
32735;BME280;19112;51.076;3.706;2023-05-20T12:18:56;101851.28;;;21.56;37.34
32735;BME280;19112;51.076;3.706;2023-05-20T12:21:22;101801.31;;;21.30;37.06
32735;BME280;19112;51.076;3.706;2023-05-20T12:23:48;101926.41;;;22.14;38.13
32735;BME280;19112;51.076;3.706;2023-05-20T12:26:14;101927.19;;;21.90;36.91
32735;BME280;19112;51.076;3.706;2023-05-20T12:28:40;101916.53;;;21.94;37.65
32735;BME280;19112;51.076;3.706;2023-05-20T12:31:06;101848.66;;;21.57;37.30
32735;BME280;19112;51.076;3.706;2023-05-20T12:33:32;101925.44;;;22.03;37.50
32735;BME280;19112;51.076;3.706;2023-05-20T12:35:58;101911.16;;;21.96;37.64
32735;BME280;19112;51.076;3.706;2023-05-20T12:38:24;101804.06;;;21.49;38.40
32735;BME280;19112;51.076;3.706;2023-05-20T12:40:50;101774.63;;;21.36;36.94
32735;BME280;19112;51.076;3.706;2023-05-20T12:43:16;101906.78;;;22.15;37.34
32735;BME280;19112;51.076;3.706;2023-05-20T12:45:42;101927.19;;;21.99;37.17
32735;BME280;19112;51.076;3.706;2023-05-20T12:48:07;101936.13;;;22.00;37.74
32735;BME280;19112;51.076;3.706;2023-05-20T12:50:33;101920.09;;;21.95;37.66
32735;BME280;19112;51.076;3.706;2023-05-20T12:52:59;101770.06;;;21.18;36.92
32735;BME280;19112;51.076;3.706;2023-05-20T12:55:25;101919.31;;;22.22;37.93
32735;BME280;19112;51.076;3.706;2023-05-20T12:57:51;101922.88;;;22.27;36.65